createdAt,value
2022-11-11T00:02:42.872Z,7.60
2022-11-11T00:06:05.293Z,5.07
2022-11-11T00:09:25.753Z,5.27
2022-11-11T00:12:46.406Z,7.80
2022-11-11T00:16:12.614Z,6.07
2022-11-11T00:19:52.025Z,6.83
2022-11-11T00:23:45.542Z,6.63
2022-11-11T00:27:07.447Z,3.90
2022-11-11T00:30:28.055Z,5.10
2022-11-11T00:33:48.557Z,10.30
2022-11-11T00:37:09.216Z,6.23
2022-11-11T00:40:29.760Z,6.83
2022-11-11T00:43:50.542Z,7.50
2022-11-11T00:47:30.028Z,7.40
2022-11-11T00:50:59.748Z,7.40
2022-11-11T00:54:20.339Z,8.40
2022-11-11T00:57:41.568Z,9.17
2022-11-11T01:01:01.982Z,8.20
2022-11-11T01:04:23.476Z,12.00
2022-11-11T01:07:44.314Z,5.90
2022-11-11T01:11:05.050Z,6.93
2022-11-11T01:14:25.722Z,10.73
2022-11-11T01:17:46.312Z,9.67
2022-11-11T01:21:11.389Z,7.60
2022-11-11T01:24:32.173Z,10.20
2022-11-11T01:27:52.666Z,9.97
2022-11-11T01:31:15.199Z,8.27
2022-11-11T01:34:35.623Z,7.23
2022-11-11T01:37:58.880Z,6.73
2022-11-11T01:41:35.333Z,7.17
2022-11-11T01:44:56.060Z,7.37
2022-11-11T01:49:07.618Z,6.40
2022-11-11T01:52:34.075Z,10.53
2022-11-11T01:55:54.711Z,6.77
2022-11-11T01:59:17.902Z,11.80
2022-11-11T02:02:44.779Z,7.67
2022-11-11T02:06:05.720Z,7.40
2022-11-11T02:09:26.974Z,10.47
2022-11-11T02:13:06.080Z,11.37
2022-11-11T02:16:27.485Z,9.67
2022-11-11T02:19:56.181Z,8.83
2022-11-11T02:23:29.167Z,8.43
2022-11-11T02:26:55.549Z,5.53
2022-11-11T02:30:21.032Z,4.97
2022-11-11T02:33:41.883Z,5.73
2022-11-11T02:37:05.320Z,4.43
2022-11-11T02:40:34.776Z,6.30
2022-11-11T02:43:55.197Z,8.53
2022-11-11T02:47:15.974Z,6.23
2022-11-11T02:50:36.574Z,5.97
2022-11-11T02:53:59.245Z,5.77
2022-11-11T02:57:20.471Z,7.40
2022-11-11T03:00:42.708Z,3.47
2022-11-11T03:04:04.136Z,4.87
2022-11-11T03:07:25.815Z,4.33
2022-11-11T03:10:46.523Z,5.60
2022-11-11T03:14:08.601Z,3.90
2022-11-11T03:17:41.996Z,4.20
2022-11-11T03:21:50.097Z,4.70
2022-11-11T03:25:05.023Z,5.40
2022-11-11T03:28:26.238Z,4.93
2022-11-11T03:31:46.584Z,3.70
2022-11-11T03:35:07.688Z,6.87
2022-11-11T03:38:28.325Z,5.17
2022-11-11T03:41:49.215Z,3.80
2022-11-11T03:45:10.034Z,4.57
2022-11-11T03:48:33.418Z,4.60
2022-11-11T03:51:54.115Z,10.23
2022-11-11T03:55:15.300Z,9.10
2022-11-11T03:58:35.938Z,4.80
2022-11-11T04:02:15.080Z,3.70
2022-11-11T04:05:54.614Z,2.73
2022-11-11T04:09:34.291Z,10.20
2022-11-11T04:13:14.077Z,3.40
2022-11-11T04:16:34.777Z,3.23
2022-11-11T04:20:14.024Z,3.03
2022-11-11T04:23:34.813Z,4.17
2022-11-11T04:26:57.812Z,5.93
2022-11-11T04:30:18.492Z,3.87
2022-11-11T04:33:39.025Z,4.83
2022-11-11T04:36:59.674Z,5.83
2022-11-11T04:40:38.835Z,8.47
2022-11-11T04:44:18.226Z,6.30
2022-11-11T04:47:39.463Z,5.87
2022-11-11T04:51:00.098Z,6.23
2022-11-11T04:54:20.972Z,6.63
2022-11-11T04:57:43.740Z,7.43
2022-11-11T05:01:04.387Z,7.50
2022-11-11T05:04:24.871Z,5.87
2022-11-11T05:08:04.401Z,7.37
2022-11-11T05:11:31.109Z,7.33
2022-11-11T05:15:10.360Z,5.97
2022-11-11T05:18:49.740Z,7.60
2022-11-11T05:22:23.846Z,8.33
2022-11-11T05:25:44.669Z,7.80
2022-11-11T05:29:05.041Z,8.53
2022-11-11T05:32:26.273Z,6.00
2022-11-11T05:35:47.033Z,7.93
2022-11-11T05:39:07.717Z,7.67
2022-11-11T05:42:28.514Z,10.57
2022-11-11T05:45:49.162Z,6.90
2022-11-11T05:49:15.633Z,6.97
2022-11-11T05:52:36.413Z,6.97
2022-11-11T05:55:57.239Z,9.70
2022-11-11T05:59:17.759Z,8.60
2022-11-11T06:02:39.213Z,8.70
2022-11-11T06:05:59.986Z,7.57
2022-11-11T06:09:20.743Z,8.27
2022-11-11T06:13:02.461Z,6.77
2022-11-11T06:16:23.997Z,9.13
2022-11-11T06:19:44.745Z,6.43
2022-11-11T06:23:05.596Z,7.40
2022-11-11T06:26:26.293Z,7.17
2022-11-11T06:29:46.866Z,8.03
2022-11-11T06:33:10.750Z,8.13
2022-11-11T06:36:31.419Z,6.53
2022-11-11T06:39:52.092Z,5.87
2022-11-11T06:43:12.972Z,7.83
2022-11-11T06:46:33.415Z,7.93
2022-11-11T06:49:53.804Z,8.63
2022-11-11T06:53:17.005Z,11.57
2022-11-11T06:56:37.981Z,7.10
2022-11-11T06:59:58.491Z,6.00
2022-11-11T07:03:25.496Z,7.00
2022-11-11T07:06:46.620Z,9.63
2022-11-11T07:10:07.609Z,5.73
2022-11-11T07:13:28.047Z,7.00
2022-11-11T07:16:48.550Z,6.50
2022-11-11T07:20:09.885Z,6.70
2022-11-11T07:23:30.693Z,5.07
2022-11-11T07:26:51.573Z,8.90
2022-11-11T07:30:12.962Z,6.87
2022-11-11T07:33:33.419Z,12.10
2022-11-11T07:36:53.879Z,7.10
2022-11-11T07:40:16.525Z,8.17
2022-11-11T07:43:37.273Z,10.83
2022-11-11T07:46:58.009Z,9.00
2022-11-11T07:50:18.577Z,9.73
2022-11-11T07:53:39.055Z,8.77
2022-11-11T07:56:59.412Z,11.23
2022-11-11T08:00:20.296Z,9.70
2022-11-11T08:03:49.979Z,12.43
2022-11-11T08:07:11.184Z,10.17
2022-11-11T08:10:32.481Z,10.37
2022-11-11T08:13:53.101Z,6.70
2022-11-11T08:17:13.500Z,7.07
2022-11-11T08:20:34.469Z,8.20
2022-11-11T08:27:36.736Z,7.77
2022-11-11T08:31:04.427Z,10.53
2022-11-11T08:34:25.551Z,9.57
2022-11-11T08:37:46.071Z,7.00
2022-11-11T08:41:07.941Z,8.33
2022-11-11T08:44:28.591Z,6.63
2022-11-11T08:47:49.276Z,7.90
2022-11-11T08:51:09.779Z,6.13
2022-11-11T08:54:30.620Z,8.27
2022-11-11T08:57:59.375Z,6.60
2022-11-11T09:01:20.402Z,6.87
2022-11-11T09:04:45.989Z,5.33
2022-11-11T09:08:08.813Z,6.80
2022-11-11T09:11:36.487Z,6.63
2022-11-11T09:14:57.666Z,9.43
2022-11-11T09:18:18.226Z,9.07
2022-11-11T09:21:38.813Z,6.00
2022-11-11T09:24:59.186Z,6.63
2022-11-11T09:28:19.671Z,5.27
2022-11-11T09:31:45.544Z,5.07
2022-11-11T09:35:06.840Z,4.00
2022-11-11T09:38:27.254Z,5.07
2022-11-11T09:42:26.438Z,4.40
2022-11-11T09:46:06.031Z,3.53
2022-11-11T09:49:33.300Z,3.87
2022-11-11T09:52:57.391Z,3.67
2022-11-11T09:56:31.145Z,2.43
2022-11-11T09:59:56.825Z,3.37
2022-11-11T10:03:18.584Z,4.30
2022-11-11T10:06:39.248Z,3.57
2022-11-11T10:10:08.574Z,2.60
2022-11-11T10:13:31.619Z,2.27
2022-11-11T10:17:02.402Z,1.53
2022-11-11T10:20:31.987Z,2.73
2022-11-11T10:23:59.027Z,1.30
2022-11-11T10:27:23.463Z,1.73
2022-11-11T10:30:46.095Z,2.33
2022-11-11T10:34:12.099Z,5.03
2022-11-11T10:37:43.246Z,4.50
2022-11-11T10:41:16.334Z,4.37
2022-11-11T10:44:38.636Z,4.90
2022-11-11T10:48:04.555Z,5.13
2022-11-11T10:51:30.687Z,4.13
2022-11-11T10:55:02.686Z,7.10
2022-11-11T10:58:33.106Z,5.57
2022-11-11T11:02:01.923Z,5.67
2022-11-11T11:05:54.239Z,6.83
2022-11-11T11:09:31.141Z,7.93
2022-11-11T11:13:17.061Z,9.80
2022-11-11T11:16:48.183Z,7.87
2022-11-11T11:20:19.769Z,7.90
2022-11-11T11:23:47.725Z,7.23
2022-11-11T11:27:09.257Z,8.50
2022-11-11T11:30:29.701Z,7.87
2022-11-11T11:33:57.294Z,8.70
2022-11-11T11:37:19.595Z,4.80
2022-11-11T11:40:56.694Z,5.53
2022-11-11T11:44:36.535Z,7.17
2022-11-11T11:48:41.484Z,5.50
2022-11-11T11:52:32.683Z,4.47
2022-11-11T11:56:07.988Z,6.50
2022-11-11T11:59:34.646Z,3.17
2022-11-11T12:03:30.134Z,3.47
2022-11-11T12:07:13.642Z,3.20
2022-11-11T12:10:50.367Z,3.50
2022-11-11T12:14:29.094Z,6.07
2022-11-11T12:18:23.163Z,4.87
2022-11-11T12:22:37.841Z,2.07
2022-11-11T12:26:24.829Z,1.77
2022-11-11T12:29:48.764Z,2.13
2022-11-11T12:33:54.096Z,2.43
2022-11-11T12:37:23.419Z,3.33
2022-11-11T12:41:13.470Z,3.50
2022-11-11T12:44:55.149Z,4.47
2022-11-11T12:48:41.790Z,8.27
2022-11-11T12:52:31.498Z,4.67
2022-11-11T12:56:04.055Z,5.50
2022-11-11T12:59:35.513Z,3.97
2022-11-11T13:03:18.180Z,4.83
2022-11-11T13:06:47.660Z,3.07
2022-11-11T13:10:41.203Z,5.27
2022-11-11T13:14:43.558Z,5.90
2022-11-11T13:18:15.753Z,7.27
2022-11-11T13:21:51.920Z,3.67
2022-11-11T13:25:21.496Z,5.80
2022-11-11T13:28:49.471Z,6.63
2022-11-11T13:32:14.577Z,3.80
2022-11-11T13:35:55.463Z,3.53
2022-11-11T13:40:00.222Z,3.27
2022-11-11T13:43:29.741Z,3.93
2022-11-11T13:46:50.511Z,2.93
2022-11-11T13:50:26.325Z,3.53
2022-11-11T13:53:48.574Z,5.13
2022-11-11T13:57:22.622Z,5.03
2022-11-11T14:00:43.881Z,3.10
2022-11-11T14:04:08.012Z,2.63
2022-11-11T14:07:47.568Z,3.53
2022-11-11T14:11:27.449Z,4.10
2022-11-11T14:14:56.973Z,3.00
2022-11-11T14:18:17.809Z,5.13
2022-11-11T14:21:58.581Z,7.00
2022-11-11T14:25:20.339Z,4.17
2022-11-11T14:28:52.404Z,3.30
2022-11-11T14:32:49.800Z,4.30
2022-11-11T14:36:35.084Z,3.07
2022-11-11T14:39:56.590Z,1.10
2022-11-11T14:43:32.374Z,1.60
2022-11-11T14:47:08.693Z,2.13
2022-11-11T14:50:31.634Z,2.20
2022-11-11T14:53:53.609Z,2.13
2022-11-11T14:57:26.627Z,4.37
2022-11-11T15:01:12.510Z,1.83
2022-11-11T15:04:38.859Z,1.70
2022-11-11T15:08:11.235Z,2.97
2022-11-11T15:12:24.853Z,2.43
2022-11-11T15:16:07.186Z,1.17
2022-11-11T15:19:57.384Z,1.83
2022-11-11T15:23:36.025Z,2.07
2022-11-11T15:27:24.036Z,2.70
2022-11-11T15:30:58.880Z,2.87
2022-11-11T15:34:33.474Z,3.63
2022-11-11T15:37:57.518Z,3.50
2022-11-11T15:41:35.154Z,2.57
2022-11-11T15:44:58.696Z,2.47
2022-11-11T15:48:43.707Z,4.30
2022-11-11T15:52:04.655Z,1.70
2022-11-11T15:55:28.038Z,4.73
2022-11-11T15:58:48.780Z,4.70
2022-11-11T16:02:18.365Z,3.87
2022-11-11T16:05:39.129Z,3.73
2022-11-11T16:08:59.901Z,4.20
2022-11-11T16:12:27.029Z,3.83
2022-11-11T16:15:50.531Z,3.60
2022-11-11T16:19:48.970Z,2.20
2022-11-11T16:23:14.273Z,2.73
2022-11-11T16:26:35.313Z,3.77
2022-11-11T16:29:56.197Z,2.37
2022-11-11T16:33:28.642Z,2.97
2022-11-11T16:37:03.145Z,2.33
2022-11-11T16:40:36.818Z,5.33
2022-11-11T16:43:58.315Z,1.67
2022-11-11T16:47:34.425Z,2.20
2022-11-11T16:51:04.060Z,2.73
2022-11-11T16:54:32.144Z,4.53
2022-11-11T16:57:53.544Z,6.37
2022-11-11T17:01:14.023Z,3.53
2022-11-11T17:04:55.441Z,5.13
2022-11-11T17:08:36.992Z,4.93
2022-11-11T17:11:57.602Z,1.67
2022-11-11T17:15:21.394Z,1.43
2022-11-11T17:18:42.004Z,4.07
2022-11-11T17:22:07.554Z,6.37
2022-11-11T17:25:28.511Z,9.37
2022-11-11T17:28:49.117Z,14.33
2022-11-11T17:32:10.036Z,17.83
2022-11-11T17:35:30.975Z,11.73
2022-11-11T17:38:51.724Z,10.87
2022-11-11T17:42:15.211Z,6.17
2022-11-11T17:45:36.141Z,9.43
2022-11-11T17:48:57.508Z,4.73
2022-11-11T17:52:18.551Z,3.97
2022-11-11T17:55:43.841Z,3.13
2022-11-11T17:59:08.092Z,1.80
2022-11-11T18:02:29.302Z,2.43
2022-11-11T18:05:54.822Z,1.10
2022-11-11T18:09:16.779Z,1.67
2022-11-11T18:12:39.169Z,2.47
2022-11-11T18:16:05.647Z,3.83
2022-11-11T18:19:27.356Z,1.63
2022-11-11T18:22:48.728Z,3.43
2022-11-11T18:26:09.745Z,2.23
2022-11-11T18:29:31.918Z,1.70
2022-11-11T18:32:53.449Z,1.30
2022-11-11T18:36:20.009Z,1.47
2022-11-11T18:39:41.341Z,2.07
2022-11-11T18:43:02.630Z,1.70
2022-11-11T18:46:26.041Z,1.50
2022-11-11T18:49:47.429Z,2.83
2022-11-11T18:53:09.622Z,1.80
2022-11-11T18:56:31.872Z,2.70
2022-11-11T18:59:52.893Z,1.70
2022-11-11T19:03:14.386Z,1.43
2022-11-11T19:06:39.297Z,1.30
2022-11-11T19:10:01.666Z,1.97
2022-11-11T19:13:22.989Z,1.67
2022-11-11T19:16:44.349Z,1.70
2022-11-11T19:20:06.998Z,1.13
2022-11-11T19:23:30.462Z,1.77
2022-11-11T19:26:52.299Z,4.17
2022-11-11T19:30:13.375Z,3.10
2022-11-11T19:33:36.170Z,2.80
2022-11-11T19:36:57.476Z,3.27
2022-11-11T19:40:18.790Z,1.73
2022-11-11T19:43:40.667Z,1.23
2022-11-11T19:47:01.815Z,1.30
2022-11-11T19:50:22.831Z,3.97
2022-11-11T19:53:44.632Z,1.47
2022-11-11T19:57:06.089Z,1.63
2022-11-11T20:00:27.791Z,2.60
2022-11-11T20:03:50.404Z,2.57
2022-11-11T20:07:11.813Z,1.80
2022-11-11T20:10:40.408Z,4.00
2022-11-11T20:14:04.996Z,1.33
2022-11-11T20:17:26.178Z,4.77
2022-11-11T20:20:48.169Z,1.10
2022-11-11T20:24:08.913Z,1.53
2022-11-11T20:27:29.875Z,2.67
2022-11-11T20:30:50.378Z,1.97
2022-11-11T20:34:11.071Z,1.90
2022-11-11T20:37:32.021Z,1.57
2022-11-11T20:41:10.952Z,2.43
2022-11-11T20:44:32.040Z,1.47
2022-11-11T20:47:54.527Z,1.27
2022-11-11T20:51:18.267Z,0.90
2022-11-11T20:54:39.996Z,1.03
2022-11-11T20:58:01.617Z,0.60
2022-11-11T21:01:25.972Z,2.10
2022-11-11T21:04:47.561Z,0.87
2022-11-11T21:08:09.192Z,1.50
2022-11-11T21:11:30.241Z,0.50
2022-11-11T21:14:51.516Z,1.37
2022-11-11T21:18:12.771Z,4.00
2022-11-11T21:21:34.901Z,5.30
2022-11-11T21:24:56.167Z,2.20
2022-11-11T21:28:16.935Z,0.33
2022-11-11T21:31:45.298Z,2.20
2022-11-11T21:35:06.160Z,0.70
2022-11-11T21:38:27.364Z,1.70
2022-11-11T21:41:48.281Z,1.37
2022-11-11T21:45:10.736Z,0.63
2022-11-11T21:48:33.479Z,0.47
2022-11-11T21:51:54.291Z,0.80
2022-11-11T21:55:15.024Z,1.23
2022-11-11T21:58:36.035Z,1.40
2022-11-11T22:01:56.400Z,1.23
2022-11-11T22:05:16.871Z,0.30
2022-11-11T22:08:38.504Z,0.80
2022-11-11T22:11:59.587Z,0.30
2022-11-11T22:15:20.069Z,1.23
2022-11-11T22:18:44.471Z,3.63
2022-11-11T22:22:05.452Z,1.93
2022-11-11T22:25:27.546Z,2.17
2022-11-11T22:28:53.923Z,1.80
2022-11-11T22:32:15.475Z,0.60
2022-11-11T22:35:36.215Z,1.30
2022-11-11T22:38:56.946Z,0.53
2022-11-11T22:42:17.522Z,4.87
2022-11-11T22:45:38.041Z,0.70
2022-11-11T22:49:04.343Z,3.27
2022-11-11T22:52:24.861Z,3.67
2022-11-11T22:55:45.397Z,1.17
2022-11-11T22:59:05.965Z,0.60
2022-11-11T23:02:26.870Z,1.97
2022-11-11T23:05:47.258Z,0.57
2022-11-11T23:09:09.960Z,2.20
2022-11-11T23:12:30.620Z,1.13
2022-11-11T23:15:53.639Z,2.07
2022-11-11T23:19:14.486Z,0.93
2022-11-11T23:22:35.309Z,0.40
2022-11-11T23:26:02.031Z,0.60
2022-11-11T23:29:22.771Z,0.80
2022-11-11T23:32:43.516Z,3.03
2022-11-11T23:36:07.380Z,1.67
2022-11-11T23:39:30.170Z,0.60
2022-11-11T23:42:51.074Z,0.70
2022-11-11T23:46:12.019Z,0.97
2022-11-11T23:49:32.533Z,3.00
2022-11-11T23:52:53.036Z,1.00
2022-11-11T23:56:13.576Z,1.40
2022-11-11T23:59:34.295Z,1.53
